sensor_id;sensor_type;location;lat;lon;timestamp;P1;durP1;ratioP1;P2;durP2;ratioP2
74223;SDS011;62585;49.706;18.216;2023-02-01T00:01:44;4.07;;;2.72;;
74223;SDS011;62585;49.706;18.216;2023-02-01T00:04:10;3.38;;;1.50;;
74223;SDS011;62585;49.706;18.216;2023-02-01T00:06:36;3.00;;;2.25;;
74223;SDS011;62585;49.706;18.216;2023-02-01T00:09:02;6.65;;;1.65;;
74223;SDS011;62585;49.706;18.216;2023-02-01T00:11:28;2.55;;;2.08;;
74223;SDS011;62585;49.706;18.216;2023-02-01T00:13:53;4.20;;;2.80;;
74223;SDS011;62585;49.706;18.216;2023-02-01T00:16:21;1.65;;;1.05;;
74223;SDS011;62585;49.706;18.216;2023-02-01T00:18:49;1.70;;;1.02;;
74223;SDS011;62585;49.706;18.216;2023-02-01T00:21:17;1.92;;;1.50;;
74223;SDS011;62585;49.706;18.216;2023-02-01T00:23:45;2.20;;;1.83;;
74223;SDS011;62585;49.706;18.216;2023-02-01T00:26:15;3.33;;;1.83;;
74223;SDS011;62585;49.706;18.216;2023-02-01T00:28:42;1.83;;;1.42;;
74223;SDS011;62585;49.706;18.216;2023-02-01T00:31:08;2.45;;;1.85;;
74223;SDS011;62585;49.706;18.216;2023-02-01T00:33:34;3.42;;;2.33;;
74223;SDS011;62585;49.706;18.216;2023-02-01T00:36:01;2.60;;;1.67;;
74223;SDS011;62585;49.706;18.216;2023-02-01T00:38:31;3.25;;;1.92;;
74223;SDS011;62585;49.706;18.216;2023-02-01T00:41:05;5.63;;;3.03;;
74223;SDS011;62585;49.706;18.216;2023-02-01T00:43:42;3.95;;;2.15;;
74223;SDS011;62585;49.706;18.216;2023-02-01T00:46:08;3.15;;;1.52;;
74223;SDS011;62585;49.706;18.216;2023-02-01T00:48:34;3.85;;;1.90;;
74223;SDS011;62585;49.706;18.216;2023-02-01T00:51:00;5.90;;;1.95;;
74223;SDS011;62585;49.706;18.216;2023-02-01T00:53:27;3.45;;;2.38;;
74223;SDS011;62585;49.706;18.216;2023-02-01T00:55:53;3.33;;;1.95;;
74223;SDS011;62585;49.706;18.216;2023-02-01T00:58:19;3.97;;;1.98;;
74223;SDS011;62585;49.706;18.216;2023-02-01T01:00:45;6.43;;;3.03;;
74223;SDS011;62585;49.706;18.216;2023-02-01T01:03:11;8.18;;;2.88;;
74223;SDS011;62585;49.706;18.216;2023-02-01T01:05:47;3.97;;;3.08;;
74223;SDS011;62585;49.706;18.216;2023-02-01T01:08:13;4.40;;;1.83;;
74223;SDS011;62585;49.706;18.216;2023-02-01T01:10:40;2.72;;;1.63;;
74223;SDS011;62585;49.706;18.216;2023-02-01T01:13:06;2.97;;;1.85;;
74223;SDS011;62585;49.706;18.216;2023-02-01T01:15:39;3.13;;;1.77;;
74223;SDS011;62585;49.706;18.216;2023-02-01T01:18:05;3.10;;;2.53;;
74223;SDS011;62585;49.706;18.216;2023-02-01T01:20:33;10.32;;;2.55;;
74223;SDS011;62585;49.706;18.216;2023-02-01T01:23:00;2.05;;;0.88;;
74223;SDS011;62585;49.706;18.216;2023-02-01T01:25:26;2.50;;;1.60;;
74223;SDS011;62585;49.706;18.216;2023-02-01T01:27:52;4.50;;;1.83;;
74223;SDS011;62585;49.706;18.216;2023-02-01T01:30:17;5.95;;;2.80;;
74223;SDS011;62585;49.706;18.216;2023-02-01T01:32:43;3.15;;;2.25;;
74223;SDS011;62585;49.706;18.216;2023-02-01T01:35:09;2.90;;;1.27;;
74223;SDS011;62585;49.706;18.216;2023-02-01T01:37:35;3.40;;;2.20;;
74223;SDS011;62585;49.706;18.216;2023-02-01T01:40:02;4.07;;;1.55;;
74223;SDS011;62585;49.706;18.216;2023-02-01T01:42:28;3.33;;;1.90;;
74223;SDS011;62585;49.706;18.216;2023-02-01T01:44:58;7.63;;;2.50;;
74223;SDS011;62585;49.706;18.216;2023-02-01T01:47:31;2.33;;;1.65;;
74223;SDS011;62585;49.706;18.216;2023-02-01T01:50:02;2.45;;;1.67;;
74223;SDS011;62585;49.706;18.216;2023-02-01T01:52:30;2.75;;;2.00;;
74223;SDS011;62585;49.706;18.216;2023-02-01T01:54:59;8.25;;;2.38;;
74223;SDS011;62585;49.706;18.216;2023-02-01T01:57:27;4.72;;;2.92;;
74223;SDS011;62585;49.706;18.216;2023-02-01T02:00:09;2.90;;;1.98;;
74223;SDS011;62585;49.706;18.216;2023-02-01T02:02:38;2.25;;;1.90;;
74223;SDS011;62585;49.706;18.216;2023-02-01T02:05:05;1.98;;;1.55;;
74223;SDS011;62585;49.706;18.216;2023-02-01T02:07:41;2.85;;;1.75;;
74223;SDS011;62585;49.706;18.216;2023-02-01T02:12:47;2.30;;;1.63;;
74223;SDS011;62585;49.706;18.216;2023-02-01T02:15:14;2.78;;;2.05;;
74223;SDS011;62585;49.706;18.216;2023-02-01T02:20:30;1.70;;;1.30;;
74223;SDS011;62585;49.706;18.216;2023-02-01T02:31:07;4.07;;;1.65;;
74223;SDS011;62585;49.706;18.216;2023-02-01T02:33:50;2.13;;;1.30;;
74223;SDS011;62585;49.706;18.216;2023-02-01T02:36:30;2.17;;;1.38;;
74223;SDS011;62585;49.706;18.216;2023-02-01T02:45:09;0.55;;;0.43;;
74223;SDS011;62585;49.706;18.216;2023-02-01T02:50:41;1.42;;;1.27;;
74223;SDS011;62585;49.706;18.216;2023-02-01T02:54:20;2.05;;;0.55;;
74223;SDS011;62585;49.706;18.216;2023-02-01T02:56:38;1.40;;;0.63;;
74223;SDS011;62585;49.706;18.216;2023-02-01T03:02:09;0.50;;;0.50;;
74223;SDS011;62585;49.706;18.216;2023-02-01T03:04:55;6.18;;;0.85;;
74223;SDS011;62585;49.706;18.216;2023-02-01T03:13:02;1.15;;;0.70;;
74223;SDS011;62585;49.706;18.216;2023-02-01T03:18:01;0.80;;;0.50;;
74223;SDS011;62585;49.706;18.216;2023-02-01T03:20:36;0.82;;;0.60;;
74223;SDS011;62585;49.706;18.216;2023-02-01T03:23:05;1.85;;;1.35;;
74223;SDS011;62585;49.706;18.216;2023-02-01T03:25:32;1.70;;;0.70;;
74223;SDS011;62585;49.706;18.216;2023-02-01T03:30:39;0.70;;;0.50;;
74223;SDS011;62585;49.706;18.216;2023-02-01T03:33:09;1.42;;;0.47;;
74223;SDS011;62585;49.706;18.216;2023-02-01T03:35:50;0.25;;;0.22;;
74223;SDS011;62585;49.706;18.216;2023-02-01T03:41:15;1.45;;;0.75;;
74223;SDS011;62585;49.706;18.216;2023-02-01T03:44:08;0.30;;;0.20;;
74223;SDS011;62585;49.706;18.216;2023-02-01T03:46:58;1.77;;;0.20;;
74223;SDS011;62585;49.706;18.216;2023-02-01T03:52:16;0.47;;;0.38;;
74223;SDS011;62585;49.706;18.216;2023-02-01T03:54:45;0.63;;;0.50;;
74223;SDS011;62585;49.706;18.216;2023-02-01T03:57:13;0.20;;;0.20;;
74223;SDS011;62585;49.706;18.216;2023-02-01T03:59:42;0.08;;;0.08;;
74223;SDS011;62585;49.706;18.216;2023-02-01T04:02:10;0.13;;;0.10;;
74223;SDS011;62585;49.706;18.216;2023-02-01T04:04:36;0.22;;;0.20;;
74223;SDS011;62585;49.706;18.216;2023-02-01T04:07:02;0.10;;;0.10;;
74223;SDS011;62585;49.706;18.216;2023-02-01T04:09:29;0.65;;;0.50;;
74223;SDS011;62585;49.706;18.216;2023-02-01T04:11:55;0.57;;;0.20;;
74223;SDS011;62585;49.706;18.216;2023-02-01T04:14:20;0.98;;;0.47;;
74223;SDS011;62585;49.706;18.216;2023-02-01T04:16:46;0.40;;;0.40;;
74223;SDS011;62585;49.706;18.216;2023-02-01T04:19:12;1.05;;;0.68;;
74223;SDS011;62585;49.706;18.216;2023-02-01T04:21:38;2.88;;;1.30;;
74223;SDS011;62585;49.706;18.216;2023-02-01T04:24:03;0.32;;;0.30;;
74223;SDS011;62585;49.706;18.216;2023-02-01T04:26:30;0.88;;;0.70;;
74223;SDS011;62585;49.706;18.216;2023-02-01T04:28:55;5.55;;;0.82;;
74223;SDS011;62585;49.706;18.216;2023-02-01T04:31:21;1.85;;;0.88;;
74223;SDS011;62585;49.706;18.216;2023-02-01T04:33:51;2.42;;;0.52;;
74223;SDS011;62585;49.706;18.216;2023-02-01T04:36:18;2.38;;;0.60;;
74223;SDS011;62585;49.706;18.216;2023-02-01T04:38:48;0.68;;;0.50;;
74223;SDS011;62585;49.706;18.216;2023-02-01T04:43:46;0.90;;;0.80;;
74223;SDS011;62585;49.706;18.216;2023-02-01T04:46:12;0.47;;;0.47;;
74223;SDS011;62585;49.706;18.216;2023-02-01T04:48:38;0.47;;;0.47;;
74223;SDS011;62585;49.706;18.216;2023-02-01T04:51:04;0.38;;;0.35;;
74223;SDS011;62585;49.706;18.216;2023-02-01T04:53:29;1.15;;;0.82;;
74223;SDS011;62585;49.706;18.216;2023-02-01T04:55:55;1.42;;;0.65;;
74223;SDS011;62585;49.706;18.216;2023-02-01T04:58:21;2.28;;;1.58;;
74223;SDS011;62585;49.706;18.216;2023-02-01T05:00:47;0.77;;;0.50;;
74223;SDS011;62585;49.706;18.216;2023-02-01T05:03:12;1.40;;;0.95;;
74223;SDS011;62585;49.706;18.216;2023-02-01T05:05:39;1.35;;;1.10;;
74223;SDS011;62585;49.706;18.216;2023-02-01T05:08:05;0.73;;;0.73;;
74223;SDS011;62585;49.706;18.216;2023-02-01T05:10:31;1.48;;;0.93;;
74223;SDS011;62585;49.706;18.216;2023-02-01T05:12:56;1.35;;;0.88;;
74223;SDS011;62585;49.706;18.216;2023-02-01T05:15:41;2.05;;;1.05;;
74223;SDS011;62585;49.706;18.216;2023-02-01T05:18:06;2.65;;;0.73;;
74223;SDS011;62585;49.706;18.216;2023-02-01T05:20:32;1.58;;;0.77;;
74223;SDS011;62585;49.706;18.216;2023-02-01T05:22:58;3.00;;;1.50;;
74223;SDS011;62585;49.706;18.216;2023-02-01T05:25:24;4.78;;;1.42;;
74223;SDS011;62585;49.706;18.216;2023-02-01T05:27:49;2.30;;;1.40;;
74223;SDS011;62585;49.706;18.216;2023-02-01T05:30:16;4.22;;;1.35;;
74223;SDS011;62585;49.706;18.216;2023-02-01T05:32:42;1.05;;;0.77;;
74223;SDS011;62585;49.706;18.216;2023-02-01T05:35:08;4.53;;;1.52;;
74223;SDS011;62585;49.706;18.216;2023-02-01T05:37:34;3.13;;;1.23;;
74223;SDS011;62585;49.706;18.216;2023-02-01T05:40:02;2.50;;;1.20;;
74223;SDS011;62585;49.706;18.216;2023-02-01T05:42:28;1.52;;;1.10;;
74223;SDS011;62585;49.706;18.216;2023-02-01T05:44:54;2.35;;;1.13;;
74223;SDS011;62585;49.706;18.216;2023-02-01T05:47:19;1.98;;;1.00;;
74223;SDS011;62585;49.706;18.216;2023-02-01T05:49:46;1.73;;;1.48;;
74223;SDS011;62585;49.706;18.216;2023-02-01T05:52:11;1.83;;;0.95;;
74223;SDS011;62585;49.706;18.216;2023-02-01T05:54:37;8.73;;;1.90;;
74223;SDS011;62585;49.706;18.216;2023-02-01T05:57:03;3.60;;;0.85;;
74223;SDS011;62585;49.706;18.216;2023-02-01T05:59:29;3.50;;;1.52;;
74223;SDS011;62585;49.706;18.216;2023-02-01T06:01:54;1.27;;;0.77;;
74223;SDS011;62585;49.706;18.216;2023-02-01T06:04:20;5.50;;;1.20;;
74223;SDS011;62585;49.706;18.216;2023-02-01T06:06:46;2.85;;;0.95;;
74223;SDS011;62585;49.706;18.216;2023-02-01T06:09:12;0.70;;;0.47;;
74223;SDS011;62585;49.706;18.216;2023-02-01T06:11:38;1.25;;;0.85;;
74223;SDS011;62585;49.706;18.216;2023-02-01T06:16:33;0.77;;;0.50;;
74223;SDS011;62585;49.706;18.216;2023-02-01T06:18:58;1.38;;;0.60;;
74223;SDS011;62585;49.706;18.216;2023-02-01T06:21:24;2.20;;;1.20;;
74223;SDS011;62585;49.706;18.216;2023-02-01T06:23:51;0.50;;;0.30;;
74223;SDS011;62585;49.706;18.216;2023-02-01T06:26:17;2.55;;;1.13;;
74223;SDS011;62585;49.706;18.216;2023-02-01T06:28:43;1.40;;;1.00;;
74223;SDS011;62585;49.706;18.216;2023-02-01T06:31:09;1.20;;;0.85;;
74223;SDS011;62585;49.706;18.216;2023-02-01T06:33:35;1.17;;;0.30;;
74223;SDS011;62585;49.706;18.216;2023-02-01T06:36:03;1.80;;;1.25;;
74223;SDS011;62585;49.706;18.216;2023-02-01T06:38:31;0.57;;;0.47;;
74223;SDS011;62585;49.706;18.216;2023-02-01T06:41:00;0.88;;;0.70;;
74223;SDS011;62585;49.706;18.216;2023-02-01T06:43:26;0.73;;;0.50;;
74223;SDS011;62585;49.706;18.216;2023-02-01T06:45:52;1.55;;;0.77;;
74223;SDS011;62585;49.706;18.216;2023-02-01T06:48:18;4.82;;;1.40;;
74223;SDS011;62585;49.706;18.216;2023-02-01T06:50:44;0.82;;;0.70;;
74223;SDS011;62585;49.706;18.216;2023-02-01T06:53:10;3.42;;;1.52;;
74223;SDS011;62585;49.706;18.216;2023-02-01T06:55:36;1.42;;;0.90;;
74223;SDS011;62585;49.706;18.216;2023-02-01T06:58:02;1.30;;;0.93;;
74223;SDS011;62585;49.706;18.216;2023-02-01T07:00:28;1.48;;;0.82;;
74223;SDS011;62585;49.706;18.216;2023-02-01T07:02:55;3.53;;;1.02;;
74223;SDS011;62585;49.706;18.216;2023-02-01T07:05:23;2.05;;;1.05;;
74223;SDS011;62585;49.706;18.216;2023-02-01T07:07:48;3.53;;;1.42;;
74223;SDS011;62585;49.706;18.216;2023-02-01T07:10:14;2.10;;;1.08;;
74223;SDS011;62585;49.706;18.216;2023-02-01T07:12:40;3.50;;;1.15;;
74223;SDS011;62585;49.706;18.216;2023-02-01T07:15:06;6.53;;;1.95;;
74223;SDS011;62585;49.706;18.216;2023-02-01T07:17:32;6.70;;;2.33;;
74223;SDS011;62585;49.706;18.216;2023-02-01T07:19:58;2.78;;;1.23;;
74223;SDS011;62585;49.706;18.216;2023-02-01T07:22:27;2.03;;;1.30;;
74223;SDS011;62585;49.706;18.216;2023-02-01T07:24:53;2.88;;;0.63;;
74223;SDS011;62585;49.706;18.216;2023-02-01T07:27:18;2.55;;;0.93;;
74223;SDS011;62585;49.706;18.216;2023-02-01T07:29:45;2.63;;;0.77;;
74223;SDS011;62585;49.706;18.216;2023-02-01T07:32:11;2.65;;;1.27;;
74223;SDS011;62585;49.706;18.216;2023-02-01T07:34:36;3.33;;;1.60;;
74223;SDS011;62585;49.706;18.216;2023-02-01T07:37:02;4.00;;;1.38;;
74223;SDS011;62585;49.706;18.216;2023-02-01T07:39:28;3.00;;;1.50;;
74223;SDS011;62585;49.706;18.216;2023-02-01T07:41:57;2.40;;;0.77;;
74223;SDS011;62585;49.706;18.216;2023-02-01T07:44:22;3.50;;;1.95;;
74223;SDS011;62585;49.706;18.216;2023-02-01T07:46:49;0.77;;;0.77;;
74223;SDS011;62585;49.706;18.216;2023-02-01T07:49:15;5.43;;;1.70;;
74223;SDS011;62585;49.706;18.216;2023-02-01T07:54:08;1.52;;;0.85;;
74223;SDS011;62585;49.706;18.216;2023-02-01T07:56:34;3.20;;;1.17;;
74223;SDS011;62585;49.706;18.216;2023-02-01T07:59:00;2.67;;;1.13;;
74223;SDS011;62585;49.706;18.216;2023-02-01T08:01:26;1.75;;;0.85;;
74223;SDS011;62585;49.706;18.216;2023-02-01T08:03:56;5.40;;;1.05;;
74223;SDS011;62585;49.706;18.216;2023-02-01T08:06:28;6.55;;;1.00;;
74223;SDS011;62585;49.706;18.216;2023-02-01T08:08:56;0.85;;;0.70;;
74223;SDS011;62585;49.706;18.216;2023-02-01T08:11:22;6.47;;;1.65;;
74223;SDS011;62585;49.706;18.216;2023-02-01T08:13:49;1.65;;;0.90;;
74223;SDS011;62585;49.706;18.216;2023-02-01T08:16:15;2.33;;;1.42;;
74223;SDS011;62585;49.706;18.216;2023-02-01T08:18:43;4.05;;;1.58;;
74223;SDS011;62585;49.706;18.216;2023-02-01T08:21:11;0.88;;;0.60;;
74223;SDS011;62585;49.706;18.216;2023-02-01T08:23:37;1.73;;;0.85;;
74223;SDS011;62585;49.706;18.216;2023-02-01T08:26:14;2.53;;;1.17;;
74223;SDS011;62585;49.706;18.216;2023-02-01T08:28:46;2.10;;;1.67;;
74223;SDS011;62585;49.706;18.216;2023-02-01T08:31:18;4.63;;;1.65;;
74223;SDS011;62585;49.706;18.216;2023-02-01T08:33:47;1.90;;;1.27;;
74223;SDS011;62585;49.706;18.216;2023-02-01T08:36:15;3.53;;;1.20;;
74223;SDS011;62585;49.706;18.216;2023-02-01T08:38:40;1.67;;;1.23;;
74223;SDS011;62585;49.706;18.216;2023-02-01T08:41:07;0.93;;;0.70;;
74223;SDS011;62585;49.706;18.216;2023-02-01T08:43:37;1.83;;;1.20;;
74223;SDS011;62585;49.706;18.216;2023-02-01T08:46:04;2.47;;;0.82;;
74223;SDS011;62585;49.706;18.216;2023-02-01T08:48:31;3.78;;;1.38;;
74223;SDS011;62585;49.706;18.216;2023-02-01T08:50:57;1.58;;;0.77;;
74223;SDS011;62585;49.706;18.216;2023-02-01T08:53:27;1.20;;;0.70;;
74223;SDS011;62585;49.706;18.216;2023-02-01T08:55:53;3.65;;;0.80;;
74223;SDS011;62585;49.706;18.216;2023-02-01T08:58:18;4.05;;;1.52;;
74223;SDS011;62585;49.706;18.216;2023-02-01T09:00:45;3.22;;;1.48;;
74223;SDS011;62585;49.706;18.216;2023-02-01T09:03:11;0.45;;;0.40;;
74223;SDS011;62585;49.706;18.216;2023-02-01T09:05:37;2.28;;;1.00;;
74223;SDS011;62585;49.706;18.216;2023-02-01T09:08:03;9.60;;;2.97;;
74223;SDS011;62585;49.706;18.216;2023-02-01T09:10:30;2.72;;;0.77;;
74223;SDS011;62585;49.706;18.216;2023-02-01T09:12:56;1.40;;;1.30;;
74223;SDS011;62585;49.706;18.216;2023-02-01T09:15:22;2.70;;;1.33;;
74223;SDS011;62585;49.706;18.216;2023-02-01T09:17:48;1.05;;;0.77;;
74223;SDS011;62585;49.706;18.216;2023-02-01T09:20:14;6.63;;;1.40;;
74223;SDS011;62585;49.706;18.216;2023-02-01T09:22:40;1.02;;;0.75;;
74223;SDS011;62585;49.706;18.216;2023-02-01T09:25:07;3.10;;;1.30;;
74223;SDS011;62585;49.706;18.216;2023-02-01T09:27:33;1.02;;;0.93;;
74223;SDS011;62585;49.706;18.216;2023-02-01T09:29:59;3.00;;;0.85;;
74223;SDS011;62585;49.706;18.216;2023-02-01T09:32:25;2.63;;;0.73;;
74223;SDS011;62585;49.706;18.216;2023-02-01T09:34:51;1.75;;;0.90;;
74223;SDS011;62585;49.706;18.216;2023-02-01T09:37:17;1.02;;;0.70;;
74223;SDS011;62585;49.706;18.216;2023-02-01T09:39:44;1.73;;;0.95;;
74223;SDS011;62585;49.706;18.216;2023-02-01T09:44:46;2.10;;;1.05;;
74223;SDS011;62585;49.706;18.216;2023-02-01T09:47:32;3.67;;;1.42;;
74223;SDS011;62585;49.706;18.216;2023-02-01T09:52:36;1.75;;;1.13;;
74223;SDS011;62585;49.706;18.216;2023-02-01T09:55:13;3.47;;;1.50;;
74223;SDS011;62585;49.706;18.216;2023-02-01T09:57:53;4.57;;;1.23;;
74223;SDS011;62585;49.706;18.216;2023-02-01T10:00:25;1.73;;;1.20;;
74223;SDS011;62585;49.706;18.216;2023-02-01T10:02:55;4.53;;;0.85;;
74223;SDS011;62585;49.706;18.216;2023-02-01T10:05:57;2.67;;;1.50;;
74223;SDS011;62585;49.706;18.216;2023-02-01T10:14:17;2.58;;;1.33;;
74223;SDS011;62585;49.706;18.216;2023-02-01T10:17:08;5.65;;;1.92;;
74223;SDS011;62585;49.706;18.216;2023-02-01T10:22:10;2.03;;;1.48;;
74223;SDS011;62585;49.706;18.216;2023-02-01T10:24:39;7.25;;;2.35;;
74223;SDS011;62585;49.706;18.216;2023-02-01T10:27:38;3.63;;;2.35;;
74223;SDS011;62585;49.706;18.216;2023-02-01T10:30:25;3.75;;;2.15;;
74223;SDS011;62585;49.706;18.216;2023-02-01T10:32:56;3.15;;;1.80;;
74223;SDS011;62585;49.706;18.216;2023-02-01T10:35:34;2.45;;;1.17;;
74223;SDS011;62585;49.706;18.216;2023-02-01T10:38:02;5.75;;;2.22;;
74223;SDS011;62585;49.706;18.216;2023-02-01T10:40:30;1.92;;;1.73;;
74223;SDS011;62585;49.706;18.216;2023-02-01T10:42:57;2.40;;;1.25;;
74223;SDS011;62585;49.706;18.216;2023-02-01T10:45:29;5.80;;;2.22;;
74223;SDS011;62585;49.706;18.216;2023-02-01T10:47:58;5.40;;;1.83;;
74223;SDS011;62585;49.706;18.216;2023-02-01T10:53:27;7.05;;;2.22;;
74223;SDS011;62585;49.706;18.216;2023-02-01T10:56:07;3.70;;;1.98;;
74223;SDS011;62585;49.706;18.216;2023-02-01T10:58:35;1.35;;;0.93;;
74223;SDS011;62585;49.706;18.216;2023-02-01T11:01:07;2.22;;;1.40;;
74223;SDS011;62585;49.706;18.216;2023-02-01T11:03:46;4.03;;;1.83;;
74223;SDS011;62585;49.706;18.216;2023-02-01T11:06:29;3.30;;;2.22;;
74223;SDS011;62585;49.706;18.216;2023-02-01T11:09:10;2.05;;;1.00;;
74223;SDS011;62585;49.706;18.216;2023-02-01T11:14:18;3.55;;;1.13;;
74223;SDS011;62585;49.706;18.216;2023-02-01T11:16:48;3.08;;;1.65;;
74223;SDS011;62585;49.706;18.216;2023-02-01T11:19:17;3.45;;;1.65;;
74223;SDS011;62585;49.706;18.216;2023-02-01T11:21:43;3.45;;;2.08;;
74223;SDS011;62585;49.706;18.216;2023-02-01T11:24:24;5.00;;;1.73;;
74223;SDS011;62585;49.706;18.216;2023-02-01T11:26:56;1.75;;;1.08;;
74223;SDS011;62585;49.706;18.216;2023-02-01T11:29:24;2.45;;;1.63;;
74223;SDS011;62585;49.706;18.216;2023-02-01T11:31:56;2.63;;;1.30;;
74223;SDS011;62585;49.706;18.216;2023-02-01T11:34:24;4.60;;;1.25;;
74223;SDS011;62585;49.706;18.216;2023-02-01T11:36:53;3.85;;;1.10;;
74223;SDS011;62585;49.706;18.216;2023-02-01T11:39:25;4.15;;;1.35;;
74223;SDS011;62585;49.706;18.216;2023-02-01T11:42:01;2.65;;;0.85;;
74223;SDS011;62585;49.706;18.216;2023-02-01T11:44:40;2.88;;;1.25;;
74223;SDS011;62585;49.706;18.216;2023-02-01T11:49:58;1.45;;;0.77;;
74223;SDS011;62585;49.706;18.216;2023-02-01T11:52:29;3.40;;;1.08;;
74223;SDS011;62585;49.706;18.216;2023-02-01T11:57:59;2.88;;;1.00;;
74223;SDS011;62585;49.706;18.216;2023-02-01T12:23:34;2.20;;;1.13;;
74223;SDS011;62585;49.706;18.216;2023-02-01T12:26:16;1.52;;;1.00;;
74223;SDS011;62585;49.706;18.216;2023-02-01T12:30:08;0.50;;;0.32;;
74223;SDS011;62585;49.706;18.216;2023-02-01T12:32:30;4.43;;;1.00;;
74223;SDS011;62585;49.706;18.216;2023-02-01T12:41:13;5.53;;;1.20;;
74223;SDS011;62585;49.706;18.216;2023-02-01T12:43:46;0.68;;;0.50;;
74223;SDS011;62585;49.706;18.216;2023-02-01T12:46:29;5.75;;;0.93;;
74223;SDS011;62585;49.706;18.216;2023-02-01T12:49:09;3.25;;;1.33;;
74223;SDS011;62585;49.706;18.216;2023-02-01T12:51:41;4.28;;;1.73;;
74223;SDS011;62585;49.706;18.216;2023-02-01T12:59:53;1.17;;;0.88;;
74223;SDS011;62585;49.706;18.216;2023-02-01T13:02:42;1.13;;;0.93;;
74223;SDS011;62585;49.706;18.216;2023-02-01T13:05:19;2.03;;;1.45;;
74223;SDS011;62585;49.706;18.216;2023-02-01T13:10:31;1.77;;;1.00;;
74223;SDS011;62585;49.706;18.216;2023-02-01T13:18:38;1.80;;;1.10;;
74223;SDS011;62585;49.706;18.216;2023-02-01T13:21:15;1.88;;;1.30;;
74223;SDS011;62585;49.706;18.216;2023-02-01T13:23:46;1.40;;;0.93;;
74223;SDS011;62585;49.706;18.216;2023-02-01T13:26:14;1.83;;;1.25;;
74223;SDS011;62585;49.706;18.216;2023-02-01T13:33:59;5.25;;;1.65;;
74223;SDS011;62585;49.706;18.216;2023-02-01T13:42:22;1.83;;;1.05;;
74223;SDS011;62585;49.706;18.216;2023-02-01T13:44:55;3.42;;;1.88;;
74223;SDS011;62585;49.706;18.216;2023-02-01T13:47:24;4.47;;;1.83;;
74223;SDS011;62585;49.706;18.216;2023-02-01T13:49:54;2.92;;;1.42;;
74223;SDS011;62585;49.706;18.216;2023-02-01T13:52:24;0.85;;;0.63;;
74223;SDS011;62585;49.706;18.216;2023-02-01T13:55:03;2.70;;;1.55;;
74223;SDS011;62585;49.706;18.216;2023-02-01T13:57:45;2.97;;;1.65;;
74223;SDS011;62585;49.706;18.216;2023-02-01T14:26:51;1.52;;;0.85;;
74223;SDS011;62585;49.706;18.216;2023-02-01T14:42:20;0.85;;;0.52;;
74223;SDS011;62585;49.706;18.216;2023-02-01T14:44:47;3.00;;;1.05;;
74223;SDS011;62585;49.706;18.216;2023-02-01T14:52:33;1.55;;;0.98;;
74223;SDS011;62585;49.706;18.216;2023-02-01T14:55:05;1.27;;;0.73;;
74223;SDS011;62585;49.706;18.216;2023-02-01T14:57:36;1.27;;;0.70;;
74223;SDS011;62585;49.706;18.216;2023-02-01T15:00:07;2.00;;;0.82;;
74223;SDS011;62585;49.706;18.216;2023-02-01T15:02:41;0.75;;;0.60;;
74223;SDS011;62585;49.706;18.216;2023-02-01T15:07:55;0.98;;;0.85;;
74223;SDS011;62585;49.706;18.216;2023-02-01T15:10:22;0.90;;;0.63;;
74223;SDS011;62585;49.706;18.216;2023-02-01T15:12:49;1.42;;;0.80;;
74223;SDS011;62585;49.706;18.216;2023-02-01T15:15:19;0.85;;;0.50;;
74223;SDS011;62585;49.706;18.216;2023-02-01T15:17:55;3.20;;;1.52;;
74223;SDS011;62585;49.706;18.216;2023-02-01T15:20:23;1.42;;;1.33;;
74223;SDS011;62585;49.706;18.216;2023-02-01T15:22:54;2.20;;;1.27;;
74223;SDS011;62585;49.706;18.216;2023-02-01T15:25:21;13.27;;;1.80;;
74223;SDS011;62585;49.706;18.216;2023-02-01T15:27:52;0.80;;;0.70;;
74223;SDS011;62585;49.706;18.216;2023-02-01T15:30:30;4.18;;;1.15;;
74223;SDS011;62585;49.706;18.216;2023-02-01T15:33:07;1.25;;;0.80;;
74223;SDS011;62585;49.706;18.216;2023-02-01T15:35:41;1.75;;;1.17;;
74223;SDS011;62585;49.706;18.216;2023-02-01T15:38:45;2.03;;;0.85;;
74223;SDS011;62585;49.706;18.216;2023-02-01T15:41:21;2.28;;;1.48;;
74223;SDS011;62585;49.706;18.216;2023-02-01T15:46:30;2.50;;;1.90;;
74223;SDS011;62585;49.706;18.216;2023-02-01T15:49:02;7.35;;;3.00;;
74223;SDS011;62585;49.706;18.216;2023-02-01T15:51:29;2.00;;;1.33;;
74223;SDS011;62585;49.706;18.216;2023-02-01T15:53:59;6.85;;;1.40;;
74223;SDS011;62585;49.706;18.216;2023-02-01T15:56:38;4.28;;;2.05;;
74223;SDS011;62585;49.706;18.216;2023-02-01T15:59:15;3.25;;;1.67;;
74223;SDS011;62585;49.706;18.216;2023-02-01T16:01:43;2.90;;;1.80;;
74223;SDS011;62585;49.706;18.216;2023-02-01T16:04:17;1.80;;;0.90;;
74223;SDS011;62585;49.706;18.216;2023-02-01T16:06:46;2.85;;;1.63;;
74223;SDS011;62585;49.706;18.216;2023-02-01T16:09:24;6.82;;;3.17;;
74223;SDS011;62585;49.706;18.216;2023-02-01T16:12:00;5.90;;;2.92;;
74223;SDS011;62585;49.706;18.216;2023-02-01T16:16:54;9.00;;;2.40;;
74223;SDS011;62585;49.706;18.216;2023-02-01T16:19:23;7.45;;;4.15;;
74223;SDS011;62585;49.706;18.216;2023-02-01T16:21:53;2.25;;;1.65;;
74223;SDS011;62585;49.706;18.216;2023-02-01T16:24:20;3.10;;;1.42;;
74223;SDS011;62585;49.706;18.216;2023-02-01T16:29:14;2.40;;;1.05;;
74223;SDS011;62585;49.706;18.216;2023-02-01T16:31:42;2.60;;;1.85;;
74223;SDS011;62585;49.706;18.216;2023-02-01T16:34:10;1.90;;;1.40;;
74223;SDS011;62585;49.706;18.216;2023-02-01T16:36:40;4.32;;;1.63;;
74223;SDS011;62585;49.706;18.216;2023-02-01T16:39:07;1.95;;;1.42;;
74223;SDS011;62585;49.706;18.216;2023-02-01T16:41:36;1.77;;;1.20;;
74223;SDS011;62585;49.706;18.216;2023-02-01T16:44:02;1.50;;;0.80;;
74223;SDS011;62585;49.706;18.216;2023-02-01T16:46:28;5.07;;;1.40;;
74223;SDS011;62585;49.706;18.216;2023-02-01T16:48:58;5.75;;;1.52;;
74223;SDS011;62585;49.706;18.216;2023-02-01T16:51:25;4.38;;;2.20;;
74223;SDS011;62585;49.706;18.216;2023-02-01T16:53:58;1.90;;;1.40;;
74223;SDS011;62585;49.706;18.216;2023-02-01T16:56:28;1.75;;;0.60;;
74223;SDS011;62585;49.706;18.216;2023-02-01T16:58:57;3.85;;;1.27;;
74223;SDS011;62585;49.706;18.216;2023-02-01T17:01:23;1.70;;;0.90;;
74223;SDS011;62585;49.706;18.216;2023-02-01T17:03:49;2.17;;;1.10;;
74223;SDS011;62585;49.706;18.216;2023-02-01T17:06:18;2.33;;;0.82;;
74223;SDS011;62585;49.706;18.216;2023-02-01T17:08:56;1.27;;;0.85;;
74223;SDS011;62585;49.706;18.216;2023-02-01T17:11:23;3.33;;;1.40;;
74223;SDS011;62585;49.706;18.216;2023-02-01T17:13:50;4.10;;;2.63;;
74223;SDS011;62585;49.706;18.216;2023-02-01T17:18:55;5.85;;;3.15;;
74223;SDS011;62585;49.706;18.216;2023-02-01T17:21:21;4.07;;;2.88;;
74223;SDS011;62585;49.706;18.216;2023-02-01T17:23:48;2.00;;;1.33;;
74223;SDS011;62585;49.706;18.216;2023-02-01T17:26:13;2.55;;;1.15;;
74223;SDS011;62585;49.706;18.216;2023-02-01T17:28:39;1.27;;;0.63;;
74223;SDS011;62585;49.706;18.216;2023-02-01T17:31:05;7.95;;;3.13;;
74223;SDS011;62585;49.706;18.216;2023-02-01T17:33:33;11.02;;;5.57;;
74223;SDS011;62585;49.706;18.216;2023-02-01T17:36:00;6.00;;;3.42;;
74223;SDS011;62585;49.706;18.216;2023-02-01T17:38:27;8.52;;;3.58;;
74223;SDS011;62585;49.706;18.216;2023-02-01T17:40:53;4.75;;;2.95;;
74223;SDS011;62585;49.706;18.216;2023-02-01T17:43:22;1.42;;;1.10;;
74223;SDS011;62585;49.706;18.216;2023-02-01T17:45:54;1.27;;;0.55;;
74223;SDS011;62585;49.706;18.216;2023-02-01T17:48:24;7.00;;;3.03;;
74223;SDS011;62585;49.706;18.216;2023-02-01T17:50:55;3.55;;;1.85;;
74223;SDS011;62585;49.706;18.216;2023-02-01T17:53:25;7.28;;;3.78;;
74223;SDS011;62585;49.706;18.216;2023-02-01T17:55:52;10.93;;;5.10;;